sensor_id;sensor_type;location;lat;lon;timestamp;temperature;humidity
25410;DHT22;13339;50.840;4.346;2024-03-07T00:00:13;10.20;99.90
25410;DHT22;13339;50.840;4.346;2024-03-07T00:02:49;10.30;99.90
25410;DHT22;13339;50.840;4.346;2024-03-07T00:05:16;10.60;99.90
25410;DHT22;13339;50.840;4.346;2024-03-07T00:07:42;10.50;99.90
25410;DHT22;13339;50.840;4.346;2024-03-07T00:10:08;10.30;99.90
25410;DHT22;13339;50.840;4.346;2024-03-07T00:12:35;10.10;99.90
25410;DHT22;13339;50.840;4.346;2024-03-07T00:15:06;10.30;99.90
25410;DHT22;13339;50.840;4.346;2024-03-07T00:17:31;10.50;99.90
25410;DHT22;13339;50.840;4.346;2024-03-07T00:19:57;10.50;99.90
25410;DHT22;13339;50.840;4.346;2024-03-07T00:22:23;10.50;99.90
25410;DHT22;13339;50.840;4.346;2024-03-07T00:24:52;10.40;99.90
25410;DHT22;13339;50.840;4.346;2024-03-07T00:27:18;10.30;99.90
25410;DHT22;13339;50.840;4.346;2024-03-07T00:29:47;10.30;99.90
25410;DHT22;13339;50.840;4.346;2024-03-07T00:32:21;10.30;99.90
25410;DHT22;13339;50.840;4.346;2024-03-07T00:34:48;10.40;99.90
25410;DHT22;13339;50.840;4.346;2024-03-07T00:37:14;10.40;99.90
25410;DHT22;13339;50.840;4.346;2024-03-07T00:39:40;10.60;99.90
25410;DHT22;13339;50.840;4.346;2024-03-07T00:42:06;10.50;99.90
25410;DHT22;13339;50.840;4.346;2024-03-07T00:44:32;10.30;99.90
25410;DHT22;13339;50.840;4.346;2024-03-07T00:46:57;10.40;99.90
25410;DHT22;13339;50.840;4.346;2024-03-07T00:49:23;10.40;99.90
25410;DHT22;13339;50.840;4.346;2024-03-07T00:51:49;10.40;99.90
25410;DHT22;13339;50.840;4.346;2024-03-07T00:54:15;10.40;99.90
25410;DHT22;13339;50.840;4.346;2024-03-07T00:56:41;10.60;99.90
25410;DHT22;13339;50.840;4.346;2024-03-07T00:59:07;10.60;99.90
25410;DHT22;13339;50.840;4.346;2024-03-07T01:01:33;10.60;99.90
25410;DHT22;13339;50.840;4.346;2024-03-07T01:04:01;10.50;99.90
25410;DHT22;13339;50.840;4.346;2024-03-07T01:06:27;10.40;99.90
25410;DHT22;13339;50.840;4.346;2024-03-07T01:08:54;10.60;99.90
25410;DHT22;13339;50.840;4.346;2024-03-07T01:11:19;10.30;99.90
25410;DHT22;13339;50.840;4.346;2024-03-07T01:13:45;10.10;99.90
25410;DHT22;13339;50.840;4.346;2024-03-07T01:16:11;9.90;99.90
25410;DHT22;13339;50.840;4.346;2024-03-07T01:18:37;9.80;99.90
25410;DHT22;13339;50.840;4.346;2024-03-07T01:21:04;9.70;99.90
25410;DHT22;13339;50.840;4.346;2024-03-07T01:23:30;9.70;99.90
25410;DHT22;13339;50.840;4.346;2024-03-07T01:25:57;9.50;99.90
25410;DHT22;13339;50.840;4.346;2024-03-07T01:28:26;9.60;99.90
25410;DHT22;13339;50.840;4.346;2024-03-07T01:30:55;9.70;99.90
25410;DHT22;13339;50.840;4.346;2024-03-07T01:33:21;9.70;99.90
25410;DHT22;13339;50.840;4.346;2024-03-07T01:35:47;9.50;99.90
25410;DHT22;13339;50.840;4.346;2024-03-07T01:38:13;9.50;99.90
25410;DHT22;13339;50.840;4.346;2024-03-07T01:40:43;9.40;99.90
25410;DHT22;13339;50.840;4.346;2024-03-07T01:43:09;9.50;99.90
25410;DHT22;13339;50.840;4.346;2024-03-07T01:45:36;9.50;99.90
25410;DHT22;13339;50.840;4.346;2024-03-07T01:48:08;9.60;99.90
25410;DHT22;13339;50.840;4.346;2024-03-07T01:50:35;9.60;99.90
25410;DHT22;13339;50.840;4.346;2024-03-07T01:53:05;9.70;99.90
25410;DHT22;13339;50.840;4.346;2024-03-07T01:55:32;9.70;99.90
25410;DHT22;13339;50.840;4.346;2024-03-07T01:57:59;9.80;99.90
25410;DHT22;13339;50.840;4.346;2024-03-07T02:00:27;9.90;99.90
25410;DHT22;13339;50.840;4.346;2024-03-07T02:02:53;9.90;99.90
25410;DHT22;13339;50.840;4.346;2024-03-07T02:05:20;9.80;99.90
25410;DHT22;13339;50.840;4.346;2024-03-07T02:07:45;9.90;99.90
25410;DHT22;13339;50.840;4.346;2024-03-07T02:10:11;9.80;99.90
25410;DHT22;13339;50.840;4.346;2024-03-07T02:12:37;9.60;99.90
25410;DHT22;13339;50.840;4.346;2024-03-07T02:15:03;9.20;99.90
25410;DHT22;13339;50.840;4.346;2024-03-07T02:17:29;9.10;99.90
25410;DHT22;13339;50.840;4.346;2024-03-07T02:19:55;9.20;99.90
25410;DHT22;13339;50.840;4.346;2024-03-07T02:22:20;9.30;99.90
25410;DHT22;13339;50.840;4.346;2024-03-07T02:24:46;9.30;99.90
25410;DHT22;13339;50.840;4.346;2024-03-07T02:27:13;9.20;99.90
25410;DHT22;13339;50.840;4.346;2024-03-07T02:29:40;9.20;99.90
25410;DHT22;13339;50.840;4.346;2024-03-07T02:32:06;9.30;99.90
25410;DHT22;13339;50.840;4.346;2024-03-07T02:34:32;9.40;99.90
25410;DHT22;13339;50.840;4.346;2024-03-07T02:36:57;9.50;99.90
25410;DHT22;13339;50.840;4.346;2024-03-07T02:39:23;9.30;99.90
25410;DHT22;13339;50.840;4.346;2024-03-07T02:41:50;9.10;99.90
25410;DHT22;13339;50.840;4.346;2024-03-07T02:44:16;9.20;99.90
25410;DHT22;13339;50.840;4.346;2024-03-07T02:46:42;9.30;99.90
25410;DHT22;13339;50.840;4.346;2024-03-07T02:49:08;9.30;99.90
25410;DHT22;13339;50.840;4.346;2024-03-07T02:51:34;9.30;99.90
25410;DHT22;13339;50.840;4.346;2024-03-07T02:54:00;9.30;99.90
25410;DHT22;13339;50.840;4.346;2024-03-07T02:56:26;9.50;99.90
25410;DHT22;13339;50.840;4.346;2024-03-07T02:58:52;9.60;99.90
25410;DHT22;13339;50.840;4.346;2024-03-07T03:01:17;9.50;99.90
25410;DHT22;13339;50.840;4.346;2024-03-07T03:03:43;9.60;99.90
25410;DHT22;13339;50.840;4.346;2024-03-07T03:06:09;9.70;99.90
25410;DHT22;13339;50.840;4.346;2024-03-07T03:08:36;9.60;99.90
25410;DHT22;13339;50.840;4.346;2024-03-07T03:11:02;9.30;99.90
25410;DHT22;13339;50.840;4.346;2024-03-07T03:13:27;9.20;99.90
25410;DHT22;13339;50.840;4.346;2024-03-07T03:15:54;9.10;99.90
25410;DHT22;13339;50.840;4.346;2024-03-07T03:18:21;8.80;99.90
25410;DHT22;13339;50.840;4.346;2024-03-07T03:20:47;8.90;99.90
25410;DHT22;13339;50.840;4.346;2024-03-07T03:23:13;9.10;99.90
25410;DHT22;13339;50.840;4.346;2024-03-07T03:25:40;9.10;99.90
25410;DHT22;13339;50.840;4.346;2024-03-07T03:28:06;9.30;99.90
25410;DHT22;13339;50.840;4.346;2024-03-07T03:30:37;9.30;99.90
25410;DHT22;13339;50.840;4.346;2024-03-07T03:33:04;9.10;99.90
25410;DHT22;13339;50.840;4.346;2024-03-07T03:35:31;9.10;99.90
25410;DHT22;13339;50.840;4.346;2024-03-07T03:37:56;9.00;99.90
25410;DHT22;13339;50.840;4.346;2024-03-07T03:40:22;9.10;99.90
25410;DHT22;13339;50.840;4.346;2024-03-07T03:42:47;9.00;99.90
25410;DHT22;13339;50.840;4.346;2024-03-07T03:45:14;8.90;99.90
25410;DHT22;13339;50.840;4.346;2024-03-07T03:47:41;8.90;99.90
25410;DHT22;13339;50.840;4.346;2024-03-07T03:50:09;8.90;99.90
25410;DHT22;13339;50.840;4.346;2024-03-07T03:52:35;9.00;99.90
25410;DHT22;13339;50.840;4.346;2024-03-07T03:55:02;9.10;99.90
25410;DHT22;13339;50.840;4.346;2024-03-07T03:57:28;9.10;99.90
25410;DHT22;13339;50.840;4.346;2024-03-07T03:59:57;9.20;99.90
25410;DHT22;13339;50.840;4.346;2024-03-07T04:02:23;9.20;99.90
25410;DHT22;13339;50.840;4.346;2024-03-07T04:04:52;9.30;99.90
25410;DHT22;13339;50.840;4.346;2024-03-07T04:07:18;9.30;99.90
25410;DHT22;13339;50.840;4.346;2024-03-07T04:09:47;9.20;99.90
25410;DHT22;13339;50.840;4.346;2024-03-07T04:12:13;9.20;99.90
25410;DHT22;13339;50.840;4.346;2024-03-07T04:14:42;9.10;99.90
25410;DHT22;13339;50.840;4.346;2024-03-07T04:17:09;9.20;99.90
25410;DHT22;13339;50.840;4.346;2024-03-07T04:19:39;9.10;99.90
25410;DHT22;13339;50.840;4.346;2024-03-07T04:22:04;9.00;99.90
25410;DHT22;13339;50.840;4.346;2024-03-07T04:24:31;9.00;99.90
25410;DHT22;13339;50.840;4.346;2024-03-07T04:27:00;9.00;99.90
25410;DHT22;13339;50.840;4.346;2024-03-07T04:29:26;8.80;99.90
25410;DHT22;13339;50.840;4.346;2024-03-07T04:31:52;8.60;99.90
25410;DHT22;13339;50.840;4.346;2024-03-07T04:34:18;8.40;99.90
25410;DHT22;13339;50.840;4.346;2024-03-07T04:36:44;8.30;99.90
25410;DHT22;13339;50.840;4.346;2024-03-07T04:39:10;8.10;99.90
25410;DHT22;13339;50.840;4.346;2024-03-07T04:41:51;8.00;99.90
25410;DHT22;13339;50.840;4.346;2024-03-07T04:44:18;8.10;99.90
25410;DHT22;13339;50.840;4.346;2024-03-07T04:46:44;8.10;99.90
25410;DHT22;13339;50.840;4.346;2024-03-07T04:49:10;8.20;99.90
25410;DHT22;13339;50.840;4.346;2024-03-07T04:51:35;8.20;99.90
25410;DHT22;13339;50.840;4.346;2024-03-07T04:54:01;8.30;99.90
25410;DHT22;13339;50.840;4.346;2024-03-07T04:56:27;8.30;99.90
25410;DHT22;13339;50.840;4.346;2024-03-07T04:58:52;8.30;99.90
25410;DHT22;13339;50.840;4.346;2024-03-07T05:01:20;8.40;99.90
25410;DHT22;13339;50.840;4.346;2024-03-07T05:03:46;8.50;99.90
25410;DHT22;13339;50.840;4.346;2024-03-07T05:06:11;8.50;99.90
25410;DHT22;13339;50.840;4.346;2024-03-07T05:08:38;8.40;99.90
25410;DHT22;13339;50.840;4.346;2024-03-07T05:11:03;8.30;99.90
25410;DHT22;13339;50.840;4.346;2024-03-07T05:13:29;8.20;99.90
25410;DHT22;13339;50.840;4.346;2024-03-07T05:15:56;8.00;99.90
25410;DHT22;13339;50.840;4.346;2024-03-07T05:18:22;7.80;99.90
25410;DHT22;13339;50.840;4.346;2024-03-07T05:20:48;7.30;99.90
25410;DHT22;13339;50.840;4.346;2024-03-07T05:23:14;7.20;99.90
25410;DHT22;13339;50.840;4.346;2024-03-07T05:25:40;7.20;99.90
25410;DHT22;13339;50.840;4.346;2024-03-07T05:28:05;7.10;99.90
25410;DHT22;13339;50.840;4.346;2024-03-07T05:30:31;6.70;99.90
25410;DHT22;13339;50.840;4.346;2024-03-07T05:32:58;6.80;99.90
25410;DHT22;13339;50.840;4.346;2024-03-07T05:35:26;6.70;99.90
25410;DHT22;13339;50.840;4.346;2024-03-07T05:37:54;6.60;99.90
25410;DHT22;13339;50.840;4.346;2024-03-07T05:40:22;6.60;99.90
25410;DHT22;13339;50.840;4.346;2024-03-07T05:42:48;6.70;99.90
25410;DHT22;13339;50.840;4.346;2024-03-07T05:45:13;6.80;99.90
25410;DHT22;13339;50.840;4.346;2024-03-07T05:47:40;6.90;99.90
25410;DHT22;13339;50.840;4.346;2024-03-07T05:50:06;7.10;99.90
25410;DHT22;13339;50.840;4.346;2024-03-07T05:52:36;7.20;99.90
25410;DHT22;13339;50.840;4.346;2024-03-07T05:55:02;7.20;99.90
25410;DHT22;13339;50.840;4.346;2024-03-07T05:57:28;7.20;99.90
25410;DHT22;13339;50.840;4.346;2024-03-07T05:59:54;7.20;99.90
25410;DHT22;13339;50.840;4.346;2024-03-07T06:02:19;7.40;99.90
25410;DHT22;13339;50.840;4.346;2024-03-07T06:04:45;7.40;99.90
25410;DHT22;13339;50.840;4.346;2024-03-07T06:07:11;7.50;99.90
25410;DHT22;13339;50.840;4.346;2024-03-07T06:09:37;7.50;99.90
25410;DHT22;13339;50.840;4.346;2024-03-07T06:12:03;7.50;99.90
25410;DHT22;13339;50.840;4.346;2024-03-07T06:14:29;7.60;99.90
25410;DHT22;13339;50.840;4.346;2024-03-07T06:16:55;7.60;99.90
25410;DHT22;13339;50.840;4.346;2024-03-07T06:19:23;7.60;99.90
25410;DHT22;13339;50.840;4.346;2024-03-07T06:21:49;7.40;99.90
25410;DHT22;13339;50.840;4.346;2024-03-07T06:24:15;6.90;99.90
25410;DHT22;13339;50.840;4.346;2024-03-07T06:26:43;6.80;99.90
25410;DHT22;13339;50.840;4.346;2024-03-07T06:29:29;6.90;99.90
25410;DHT22;13339;50.840;4.346;2024-03-07T06:31:55;6.90;99.90
25410;DHT22;13339;50.840;4.346;2024-03-07T06:34:21;6.80;99.90
25410;DHT22;13339;50.840;4.346;2024-03-07T06:36:46;6.70;99.90
25410;DHT22;13339;50.840;4.346;2024-03-07T06:39:12;6.60;99.90
25410;DHT22;13339;50.840;4.346;2024-03-07T06:41:38;6.50;99.90
25410;DHT22;13339;50.840;4.346;2024-03-07T06:44:04;6.60;99.90
25410;DHT22;13339;50.840;4.346;2024-03-07T06:46:30;6.70;99.90
25410;DHT22;13339;50.840;4.346;2024-03-07T06:48:57;6.60;99.90
25410;DHT22;13339;50.840;4.346;2024-03-07T06:51:23;6.60;99.90
25410;DHT22;13339;50.840;4.346;2024-03-07T06:53:50;6.70;99.90
25410;DHT22;13339;50.840;4.346;2024-03-07T06:56:16;6.80;99.90
25410;DHT22;13339;50.840;4.346;2024-03-07T06:58:42;6.80;99.90
25410;DHT22;13339;50.840;4.346;2024-03-07T07:01:09;6.80;99.90
25410;DHT22;13339;50.840;4.346;2024-03-07T07:03:37;6.70;99.90
25410;DHT22;13339;50.840;4.346;2024-03-07T07:06:04;6.70;99.90
25410;DHT22;13339;50.840;4.346;2024-03-07T07:08:32;6.60;99.90
25410;DHT22;13339;50.840;4.346;2024-03-07T07:10:58;6.60;99.90
25410;DHT22;13339;50.840;4.346;2024-03-07T07:13:23;6.80;99.90
25410;DHT22;13339;50.840;4.346;2024-03-07T07:15:49;6.90;99.90
25410;DHT22;13339;50.840;4.346;2024-03-07T07:18:15;7.00;99.90
25410;DHT22;13339;50.840;4.346;2024-03-07T07:20:40;7.20;99.90
25410;DHT22;13339;50.840;4.346;2024-03-07T07:23:06;7.30;99.90
25410;DHT22;13339;50.840;4.346;2024-03-07T07:25:32;7.10;99.90
25410;DHT22;13339;50.840;4.346;2024-03-07T07:27:58;7.10;99.90
25410;DHT22;13339;50.840;4.346;2024-03-07T07:30:24;7.20;99.90
25410;DHT22;13339;50.840;4.346;2024-03-07T07:32:51;7.20;99.90
25410;DHT22;13339;50.840;4.346;2024-03-07T07:35:17;7.30;99.90
25410;DHT22;13339;50.840;4.346;2024-03-07T07:37:50;7.40;99.90
25410;DHT22;13339;50.840;4.346;2024-03-07T07:40:18;7.30;99.90
25410;DHT22;13339;50.840;4.346;2024-03-07T07:42:45;7.20;99.90
25410;DHT22;13339;50.840;4.346;2024-03-07T07:45:12;7.20;99.90
25410;DHT22;13339;50.840;4.346;2024-03-07T07:47:50;7.20;99.90
25410;DHT22;13339;50.840;4.346;2024-03-07T07:50:19;7.20;99.90
25410;DHT22;13339;50.840;4.346;2024-03-07T07:52:53;6.90;99.90
25410;DHT22;13339;50.840;4.346;2024-03-07T07:55:23;6.70;99.90
25410;DHT22;13339;50.840;4.346;2024-03-07T07:57:58;6.90;99.90
25410;DHT22;13339;50.840;4.346;2024-03-07T08:00:28;6.90;99.90
25410;DHT22;13339;50.840;4.346;2024-03-07T08:02:55;7.10;99.90
25410;DHT22;13339;50.840;4.346;2024-03-07T08:05:22;7.00;99.90
25410;DHT22;13339;50.840;4.346;2024-03-07T08:07:53;6.70;99.90
25410;DHT22;13339;50.840;4.346;2024-03-07T08:10:21;6.60;99.90
25410;DHT22;13339;50.840;4.346;2024-03-07T08:12:48;6.70;99.90
25410;DHT22;13339;50.840;4.346;2024-03-07T08:15:14;6.90;99.90
25410;DHT22;13339;50.840;4.346;2024-03-07T08:20:10;6.80;99.90
25410;DHT22;13339;50.840;4.346;2024-03-07T08:22:40;6.90;99.90
25410;DHT22;13339;50.840;4.346;2024-03-07T08:25:13;7.10;99.90
25410;DHT22;13339;50.840;4.346;2024-03-07T08:27:42;7.10;99.90
25410;DHT22;13339;50.840;4.346;2024-03-07T08:30:09;6.90;99.90
25410;DHT22;13339;50.840;4.346;2024-03-07T08:32:46;6.90;99.90
25410;DHT22;13339;50.840;4.346;2024-03-07T08:35:12;7.00;99.90
25410;DHT22;13339;50.840;4.346;2024-03-07T08:37:45;7.00;99.90
25410;DHT22;13339;50.840;4.346;2024-03-07T08:40:12;7.00;99.90
25410;DHT22;13339;50.840;4.346;2024-03-07T08:42:45;6.90;99.90
25410;DHT22;13339;50.840;4.346;2024-03-07T08:45:11;6.80;99.90
25410;DHT22;13339;50.840;4.346;2024-03-07T08:47:43;6.90;99.90
25410;DHT22;13339;50.840;4.346;2024-03-07T08:50:09;7.10;99.90
25410;DHT22;13339;50.840;4.346;2024-03-07T08:52:35;7.40;99.90
25410;DHT22;13339;50.840;4.346;2024-03-07T08:55:06;7.60;99.90
25410;DHT22;13339;50.840;4.346;2024-03-07T08:57:35;7.60;99.90
25410;DHT22;13339;50.840;4.346;2024-03-07T09:00:02;7.60;99.90
25410;DHT22;13339;50.840;4.346;2024-03-07T09:02:35;7.30;99.90
25410;DHT22;13339;50.840;4.346;2024-03-07T09:05:04;7.40;99.90
25410;DHT22;13339;50.840;4.346;2024-03-07T09:07:30;7.50;99.90
25410;DHT22;13339;50.840;4.346;2024-03-07T09:09:56;7.60;99.90
25410;DHT22;13339;50.840;4.346;2024-03-07T09:12:22;7.60;99.90
25410;DHT22;13339;50.840;4.346;2024-03-07T09:14:50;7.60;99.90
25410;DHT22;13339;50.840;4.346;2024-03-07T09:17:17;7.80;99.90
25410;DHT22;13339;50.840;4.346;2024-03-07T09:19:43;8.00;99.90
25410;DHT22;13339;50.840;4.346;2024-03-07T09:22:09;8.20;99.90
25410;DHT22;13339;50.840;4.346;2024-03-07T09:24:34;8.50;99.90
25410;DHT22;13339;50.840;4.346;2024-03-07T09:27:00;8.50;99.90
25410;DHT22;13339;50.840;4.346;2024-03-07T09:29:26;8.50;99.90
25410;DHT22;13339;50.840;4.346;2024-03-07T09:31:52;8.40;99.90
25410;DHT22;13339;50.840;4.346;2024-03-07T09:34:19;8.50;99.90
25410;DHT22;13339;50.840;4.346;2024-03-07T09:36:47;8.10;99.90
25410;DHT22;13339;50.840;4.346;2024-03-07T09:39:12;8.00;99.90
25410;DHT22;13339;50.840;4.346;2024-03-07T09:41:38;7.90;99.90
25410;DHT22;13339;50.840;4.346;2024-03-07T09:44:14;7.80;99.90
25410;DHT22;13339;50.840;4.346;2024-03-07T09:46:40;8.00;99.90
25410;DHT22;13339;50.840;4.346;2024-03-07T09:49:06;7.90;99.90
25410;DHT22;13339;50.840;4.346;2024-03-07T09:51:36;7.80;99.90
25410;DHT22;13339;50.840;4.346;2024-03-07T09:54:02;7.80;99.90
25410;DHT22;13339;50.840;4.346;2024-03-07T09:56:30;8.10;99.90
25410;DHT22;13339;50.840;4.346;2024-03-07T09:59:03;8.20;99.90
25410;DHT22;13339;50.840;4.346;2024-03-07T10:01:32;8.20;99.90
25410;DHT22;13339;50.840;4.346;2024-03-07T10:04:00;8.30;99.90
25410;DHT22;13339;50.840;4.346;2024-03-07T10:06:40;8.00;99.90
25410;DHT22;13339;50.840;4.346;2024-03-07T10:09:07;8.00;99.90
25410;DHT22;13339;50.840;4.346;2024-03-07T10:11:33;8.20;99.90
25410;DHT22;13339;50.840;4.346;2024-03-07T10:13:59;8.40;99.90
25410;DHT22;13339;50.840;4.346;2024-03-07T10:16:25;8.70;99.90
25410;DHT22;13339;50.840;4.346;2024-03-07T10:18:50;8.80;99.90
25410;DHT22;13339;50.840;4.346;2024-03-07T10:21:22;8.70;99.90
25410;DHT22;13339;50.840;4.346;2024-03-07T10:23:49;8.60;99.90
25410;DHT22;13339;50.840;4.346;2024-03-07T10:26:17;8.70;99.90
25410;DHT22;13339;50.840;4.346;2024-03-07T10:28:43;8.90;99.90
25410;DHT22;13339;50.840;4.346;2024-03-07T10:31:09;9.10;99.90
25410;DHT22;13339;50.840;4.346;2024-03-07T10:33:40;9.30;99.90
25410;DHT22;13339;50.840;4.346;2024-03-07T10:36:06;9.40;99.90
25410;DHT22;13339;50.840;4.346;2024-03-07T10:38:36;9.40;99.90
25410;DHT22;13339;50.840;4.346;2024-03-07T10:41:03;9.50;99.90
25410;DHT22;13339;50.840;4.346;2024-03-07T10:43:36;9.40;99.90
25410;DHT22;13339;50.840;4.346;2024-03-07T10:46:05;9.30;99.90
25410;DHT22;13339;50.840;4.346;2024-03-07T10:48:38;9.40;99.90
25410;DHT22;13339;50.840;4.346;2024-03-07T10:51:26;9.70;99.90
25410;DHT22;13339;50.840;4.346;2024-03-07T10:57:28;9.90;99.90
25410;DHT22;13339;50.840;4.346;2024-03-07T11:00:03;10.30;99.90
25410;DHT22;13339;50.840;4.346;2024-03-07T11:02:49;10.50;99.90
25410;DHT22;13339;50.840;4.346;2024-03-07T11:05:19;10.60;99.90
25410;DHT22;13339;50.840;4.346;2024-03-07T11:07:44;10.70;99.90
25410;DHT22;13339;50.840;4.346;2024-03-07T11:10:10;10.80;99.90
25410;DHT22;13339;50.840;4.346;2024-03-07T11:12:38;11.10;99.90
25410;DHT22;13339;50.840;4.346;2024-03-07T11:15:05;11.20;99.90
25410;DHT22;13339;50.840;4.346;2024-03-07T11:17:32;11.30;99.90
25410;DHT22;13339;50.840;4.346;2024-03-07T11:20:22;11.60;99.90
25410;DHT22;13339;50.840;4.346;2024-03-07T11:22:48;11.80;99.90
25410;DHT22;13339;50.840;4.346;2024-03-07T11:25:18;12.10;99.90
25410;DHT22;13339;50.840;4.346;2024-03-07T11:27:58;12.00;99.90
25410;DHT22;13339;50.840;4.346;2024-03-07T11:30:25;11.80;99.90
25410;DHT22;13339;50.840;4.346;2024-03-07T11:32:52;11.90;99.90
25410;DHT22;13339;50.840;4.346;2024-03-07T11:35:35;12.00;99.90
25410;DHT22;13339;50.840;4.346;2024-03-07T11:38:01;11.80;99.90
25410;DHT22;13339;50.840;4.346;2024-03-07T11:42:55;12.10;99.90
25410;DHT22;13339;50.840;4.346;2024-03-07T11:45:30;12.20;99.90
25410;DHT22;13339;50.840;4.346;2024-03-07T11:48:00;12.30;99.90
25410;DHT22;13339;50.840;4.346;2024-03-07T11:50:32;12.50;99.90
25410;DHT22;13339;50.840;4.346;2024-03-07T11:53:02;12.60;99.90
25410;DHT22;13339;50.840;4.346;2024-03-07T11:55:31;12.60;99.90
25410;DHT22;13339;50.840;4.346;2024-03-07T11:58:20;12.50;99.90
25410;DHT22;13339;50.840;4.346;2024-03-07T12:00:50;12.40;99.90
25410;DHT22;13339;50.840;4.346;2024-03-07T12:03:18;12.40;99.90
25410;DHT22;13339;50.840;4.346;2024-03-07T12:05:47;12.40;99.90
25410;DHT22;13339;50.840;4.346;2024-03-07T12:08:14;12.50;99.90
25410;DHT22;13339;50.840;4.346;2024-03-07T12:10:41;12.60;99.90
25410;DHT22;13339;50.840;4.346;2024-03-07T12:13:13;12.50;99.90
25410;DHT22;13339;50.840;4.346;2024-03-07T12:15:42;12.60;99.90
25410;DHT22;13339;50.840;4.346;2024-03-07T12:18:09;13.00;99.90
25410;DHT22;13339;50.840;4.346;2024-03-07T12:20:40;12.90;99.90
25410;DHT22;13339;50.840;4.346;2024-03-07T12:23:07;13.00;99.90
25410;DHT22;13339;50.840;4.346;2024-03-07T12:25:38;13.30;99.90
25410;DHT22;13339;50.840;4.346;2024-03-07T12:28:09;13.50;99.90
25410;DHT22;13339;50.840;4.346;2024-03-07T12:33:18;13.50;99.90
25410;DHT22;13339;50.840;4.346;2024-03-07T12:35:48;13.20;99.90
25410;DHT22;13339;50.840;4.346;2024-03-07T12:38:15;12.90;99.90
25410;DHT22;13339;50.840;4.346;2024-03-07T12:40:45;12.80;99.90
25410;DHT22;13339;50.840;4.346;2024-03-07T12:43:19;12.50;99.90
25410;DHT22;13339;50.840;4.346;2024-03-07T12:45:52;12.40;99.90
25410;DHT22;13339;50.840;4.346;2024-03-07T12:48:19;12.10;99.90
25410;DHT22;13339;50.840;4.346;2024-03-07T12:50:47;12.10;99.90
25410;DHT22;13339;50.840;4.346;2024-03-07T12:53:22;12.00;99.90
25410;DHT22;13339;50.840;4.346;2024-03-07T12:55:48;11.90;99.90
25410;DHT22;13339;50.840;4.346;2024-03-07T12:58:15;12.00;99.90
25410;DHT22;13339;50.840;4.346;2024-03-07T13:00:41;12.10;99.90
25410;DHT22;13339;50.840;4.346;2024-03-07T13:03:07;12.30;99.90
25410;DHT22;13339;50.840;4.346;2024-03-07T13:05:37;12.20;99.90
25410;DHT22;13339;50.840;4.346;2024-03-07T13:08:06;12.00;99.90
25410;DHT22;13339;50.840;4.346;2024-03-07T13:10:38;11.90;99.90
25410;DHT22;13339;50.840;4.346;2024-03-07T13:13:04;12.10;99.90
25410;DHT22;13339;50.840;4.346;2024-03-07T13:15:30;12.30;99.90
25410;DHT22;13339;50.840;4.346;2024-03-07T13:17:55;12.50;99.90
25410;DHT22;13339;50.840;4.346;2024-03-07T13:20:21;12.60;99.90
25410;DHT22;13339;50.840;4.346;2024-03-07T13:22:52;12.60;99.90
25410;DHT22;13339;50.840;4.346;2024-03-07T13:25:25;12.50;99.90
25410;DHT22;13339;50.840;4.346;2024-03-07T13:28:07;12.40;99.90
25410;DHT22;13339;50.840;4.346;2024-03-07T13:30:34;12.40;99.90
25410;DHT22;13339;50.840;4.346;2024-03-07T13:33:02;12.40;99.90
25410;DHT22;13339;50.840;4.346;2024-03-07T13:35:28;12.30;99.90
25410;DHT22;13339;50.840;4.346;2024-03-07T13:37:54;12.20;99.90
25410;DHT22;13339;50.840;4.346;2024-03-07T13:40:22;12.00;99.90
25410;DHT22;13339;50.840;4.346;2024-03-07T13:42:58;12.00;99.90
25410;DHT22;13339;50.840;4.346;2024-03-07T13:45:30;11.80;99.90
25410;DHT22;13339;50.840;4.346;2024-03-07T13:48:05;11.80;99.90
25410;DHT22;13339;50.840;4.346;2024-03-07T13:50:32;11.50;99.90
25410;DHT22;13339;50.840;4.346;2024-03-07T13:52:59;11.60;99.90
25410;DHT22;13339;50.840;4.346;2024-03-07T14:01:25;11.70;99.90
25410;DHT22;13339;50.840;4.346;2024-03-07T14:13:26;11.90;99.90
25410;DHT22;13339;50.840;4.346;2024-03-07T14:30:34;12.50;99.90
25410;DHT22;13339;50.840;4.346;2024-03-07T14:33:06;12.50;99.90
25410;DHT22;13339;50.840;4.346;2024-03-07T14:36:11;12.40;99.90
25410;DHT22;13339;50.840;4.346;2024-03-07T14:38:51;12.30;99.90
25410;DHT22;13339;50.840;4.346;2024-03-07T14:41:23;12.30;99.90
25410;DHT22;13339;50.840;4.346;2024-03-07T14:43:50;12.40;99.90
25410;DHT22;13339;50.840;4.346;2024-03-07T14:46:17;12.50;99.90
25410;DHT22;13339;50.840;4.346;2024-03-07T14:48:43;12.70;99.90
25410;DHT22;13339;50.840;4.346;2024-03-07T14:51:11;12.80;99.90
25410;DHT22;13339;50.840;4.346;2024-03-07T14:53:42;12.70;99.90
25410;DHT22;13339;50.840;4.346;2024-03-07T14:56:08;12.80;99.90
25410;DHT22;13339;50.840;4.346;2024-03-07T14:58:35;12.90;99.90
25410;DHT22;13339;50.840;4.346;2024-03-07T15:01:01;12.60;99.90
25410;DHT22;13339;50.840;4.346;2024-03-07T15:03:27;12.50;99.90
25410;DHT22;13339;50.840;4.346;2024-03-07T15:05:55;12.40;99.90
25410;DHT22;13339;50.840;4.346;2024-03-07T15:08:21;12.30;99.90
25410;DHT22;13339;50.840;4.346;2024-03-07T15:10:54;12.30;99.90
25410;DHT22;13339;50.840;4.346;2024-03-07T15:13:21;12.10;99.90
25410;DHT22;13339;50.840;4.346;2024-03-07T15:15:48;12.00;99.90
25410;DHT22;13339;50.840;4.346;2024-03-07T15:18:14;12.10;99.90
25410;DHT22;13339;50.840;4.346;2024-03-07T15:20:39;12.20;99.90
25410;DHT22;13339;50.840;4.346;2024-03-07T15:23:07;12.30;99.90
25410;DHT22;13339;50.840;4.346;2024-03-07T15:25:32;12.40;99.90
25410;DHT22;13339;50.840;4.346;2024-03-07T15:27:59;12.10;99.90
25410;DHT22;13339;50.840;4.346;2024-03-07T15:30:27;11.80;99.90
25410;DHT22;13339;50.840;4.346;2024-03-07T15:33:01;11.70;99.90
25410;DHT22;13339;50.840;4.346;2024-03-07T15:35:27;11.80;99.90
25410;DHT22;13339;50.840;4.346;2024-03-07T15:37:53;11.80;99.90
25410;DHT22;13339;50.840;4.346;2024-03-07T15:40:23;11.60;99.90
25410;DHT22;13339;50.840;4.346;2024-03-07T15:42:50;11.70;99.90
25410;DHT22;13339;50.840;4.346;2024-03-07T15:45:25;11.80;99.90
25410;DHT22;13339;50.840;4.346;2024-03-07T15:47:54;11.80;99.90
25410;DHT22;13339;50.840;4.346;2024-03-07T15:50:21;11.90;99.90
25410;DHT22;13339;50.840;4.346;2024-03-07T15:52:49;12.00;99.90
25410;DHT22;13339;50.840;4.346;2024-03-07T15:55:19;12.20;99.90
25410;DHT22;13339;50.840;4.346;2024-03-07T15:57:50;12.20;99.90
25410;DHT22;13339;50.840;4.346;2024-03-07T16:00:24;12.30;99.90
25410;DHT22;13339;50.840;4.346;2024-03-07T16:02:55;12.40;99.90
25410;DHT22;13339;50.840;4.346;2024-03-07T16:05:25;12.50;99.90
25410;DHT22;13339;50.840;4.346;2024-03-07T16:07:52;12.50;99.90
25410;DHT22;13339;50.840;4.346;2024-03-07T16:10:22;12.50;99.90
25410;DHT22;13339;50.840;4.346;2024-03-07T16:12:52;12.50;99.90
25410;DHT22;13339;50.840;4.346;2024-03-07T16:15:19;12.60;99.90
25410;DHT22;13339;50.840;4.346;2024-03-07T16:17:50;12.60;99.90
25410;DHT22;13339;50.840;4.346;2024-03-07T16:20:16;12.50;99.90
25410;DHT22;13339;50.840;4.346;2024-03-07T16:22:46;12.30;99.90
25410;DHT22;13339;50.840;4.346;2024-03-07T16:25:17;12.30;99.90